Airport ID:KE16
Update Time (UTC):26 APR 19 00:13
Wind Speed (Knots):12
Wind Direction (Magnetic):110
Temperature (°C):23
Dew Point (°C):12
Humidity (%):50
Altimeter (inHg):29.94
Density Altitude (Feet):1300
Visibility (Miles):10
Clouds (Hundreds of feet):CLR
Present Weather:NO PRECIPITATION
METAR:METAR KE16 260010Z AUTO 12011KT 10SM CLR 23/12 A2994 RMK AO2

The data displayed is for advisory purposes only and is not to be used for flight planning or operations.

This page is not automatically refreshed. Reload the page to see current data.